Time;durP1;ratioP1;P1;durP2;ratioP2;P2;SDS_P1;SDS_P2;PMS_P1;PMS_P2;Temp;Humidity;BMP_temperature;BMP_pressure;BME280_temperature;BME280_humidity;BME280_pressure;Samples;Min_cycle;Max_cycle;Signal;HPM_P1;HPM_P2
2023/02/12 00:00:51;;;;;;;34.70;18.92;;;;;;;9.33;65.37;102449.66;10181927;29;20056;-61
2023/02/12 00:05:54;;;;;;;43.30;20.65;;;;;;;9.32;65.33;102446.13;10165051;29;20060;-59
2023/02/12 00:10:56;;;;;;;42.40;20.35;;;;;;;9.33;65.40;102433.53;10179291;29;20122;-61
2023/02/12 00:15:57;;;;;;;45.28;21.00;;;;;;;9.32;65.40;102443.44;10181252;29;20059;-60
2023/02/12 00:21:00;;;;;;;39.33;18.73;;;;;;;9.31;65.68;102441.69;10163496;29;20577;-59
2023/02/12 00:26:10;;;;;;;40.17;20.83;;;;;;;9.29;65.27;102442.78;10181753;29;20702;-59
2023/02/12 00:31:17;;;;;;;48.67;21.77;;;;;;;9.27;65.76;102434.00;10178289;29;20080;-59
2023/02/12 00:36:21;;;;;;;47.50;19.60;;;;;;;9.27;65.61;102434.84;10176523;29;20051;-61
2023/02/12 00:41:24;;;;;;;42.03;19.52;;;;;;;9.27;65.70;102431.31;10168966;29;20062;-61
2023/02/12 00:46:25;;;;;;;42.97;20.63;;;;;;;9.25;65.61;102439.47;10160347;29;20056;-61
2023/02/12 00:51:26;;;;;;;41.38;21.40;;;;;;;9.24;65.69;102442.28;10178711;29;20063;-59
2023/02/12 00:56:28;;;;;;;43.60;20.95;;;;;;;9.19;65.40;102431.91;10185316;29;20134;-60
2023/02/12 01:01:29;;;;;;;37.58;19.88;;;;;;;9.14;66.01;102436.75;10195389;29;20063;-61
2023/02/12 01:06:31;;;;;;;37.83;19.38;;;;;;;9.15;65.58;102427.75;10186863;29;20115;-60
2023/02/12 01:11:32;;;;;;;44.75;21.23;;;;;;;8.99;66.11;102432.56;10185079;29;20048;-60
2023/02/12 01:16:35;;;;;;;38.40;19.85;;;;;;;8.88;66.93;102431.50;10185570;29;20044;-59
2023/02/12 01:21:37;;;;;;;43.22;21.17;;;;;;;8.97;65.93;102426.44;10166967;29;20052;-58
2023/02/12 01:26:38;;;;;;;39.35;19.60;;;;;;;9.03;66.13;102425.97;10184278;29;20063;-60
2023/02/12 01:31:41;;;;;;;44.30;20.00;;;;;;;9.05;66.04;102424.03;10187756;29;20063;-60
2023/02/12 01:36:42;;;;;;;37.40;19.25;;;;;;;9.03;66.12;102426.81;10185610;29;20074;-61
2023/02/12 01:41:44;;;;;;;38.90;19.98;;;;;;;8.98;66.33;102446.91;10187988;29;20048;-58
2023/02/12 01:46:57;;;;;;;44.28;20.15;;;;;;;8.97;65.98;102438.03;10188093;29;20048;-59
2023/02/12 01:52:14;;;;;;;41.50;19.98;;;;;;;8.97;65.75;102434.50;10189002;29;20067;-60
2023/02/12 01:57:17;;;;;;;41.47;20.38;;;;;;;8.95;66.17;102423.03;10184384;29;20076;-58
2023/02/12 02:02:18;;;;;;;38.10;19.75;;;;;;;8.96;66.55;102430.06;10186026;29;20443;-57
2023/02/12 02:07:20;;;;;;;42.17;21.27;;;;;;;8.93;66.52;102431.16;10183197;29;20088;-59
2023/02/12 02:17:57;;;;;;;36.03;18.75;;;;;;;8.89;66.25;102433.22;10181557;29;20467;-59
2023/02/12 02:23:16;;;;;;;40.80;20.08;;;;;;;8.93;66.75;102429.34;10180855;29;20132;-58
2023/02/12 02:28:41;;;;;;;43.20;21.92;;;;;;;8.95;66.31;102421.19;10186854;29;20123;-58
2023/02/12 02:33:55;;;;;;;36.25;20.15;;;;;;;8.97;66.53;102424.59;10162425;29;20048;-61
2023/02/12 02:39:14;;;;;;;41.60;22.55;;;;;;;8.99;66.18;102419.97;10182281;29;20094;-60
2023/02/12 02:44:22;;;;;;;42.65;22.60;;;;;;;9.02;66.20;102416.22;10179242;29;20052;-59
2023/02/12 02:49:33;;;;;;;46.88;23.60;;;;;;;9.02;66.01;102418.88;10188286;29;20079;-61
2023/02/12 02:54:46;;;;;;;37.95;21.05;;;;;;;9.02;66.47;102424.25;10180358;29;20111;-59
2023/02/12 03:00:02;;;;;;;39.63;21.63;;;;;;;9.04;66.01;102422.31;10180638;29;20494;-59
2023/02/12 03:05:25;;;;;;;40.67;21.85;;;;;;;9.06;66.40;102420.38;10184576;29;20060;-59
2023/02/12 03:10:35;;;;;;;45.00;23.25;;;;;;;9.00;66.12;102419.00;10181023;29;20083;-59
2023/02/12 03:15:43;;;;;;;40.45;21.92;;;;;;;9.02;66.24;102414.38;10184689;29;20055;-59
2023/02/12 03:20:50;;;;;;;40.10;22.27;;;;;;;9.05;66.03;102424.88;10184540;29;20069;-60
2023/02/12 03:25:57;;;;;;;40.67;21.20;;;;;;;9.05;66.34;102430.25;10181019;29;20056;-59
2023/02/12 03:31:28;;;;;;;36.25;21.17;;;;;;;9.02;66.50;102424.25;10186214;29;20095;-59
2023/02/12 03:36:40;;;;;;;38.50;20.55;;;;;;;9.06;66.13;102428.41;10179720;29;20108;-60
2023/02/12 03:42:06;;;;;;;42.15;21.02;;;;;;;9.00;66.31;102428.88;10180063;29;20048;-60
2023/02/12 03:47:19;;;;;;;38.65;20.77;;;;;;;9.02;66.44;102425.09;10185826;29;20086;-61
2023/02/12 03:52:21;;;;;;;36.13;21.15;;;;;;;9.06;65.89;102431.09;10179255;29;20499;-62
2023/02/12 03:57:29;;;;;;;41.08;20.67;;;;;;;8.97;66.58;102434.50;10182699;29;20055;-60
2023/02/12 04:02:31;;;;;;;34.90;19.83;;;;;;;9.03;66.33;102442.06;10183785;29;20456;-62
2023/02/12 04:07:35;;;;;;;40.63;20.98;;;;;;;9.03;66.38;102439.41;10178838;29;20056;-61
2023/02/12 04:12:42;;;;;;;37.72;18.90;;;;;;;9.00;66.37;102447.66;10181176;29;20044;-61
2023/02/12 04:18:01;;;;;;;40.85;19.88;;;;;;;8.97;66.46;102453.28;10181642;29;20518;-59
2023/02/12 04:23:28;;;;;;;37.70;19.02;;;;;;;9.00;66.49;102450.34;10178148;29;20413;-59
2023/02/12 04:28:41;;;;;;;40.33;19.50;;;;;;;9.00;66.69;102459.22;10187350;29;20086;-62
2023/02/12 04:34:02;;;;;;;37.05;19.25;;;;;;;8.98;66.39;102452.28;10181571;29;20586;-58
2023/02/12 04:39:10;;;;;;;42.33;20.95;;;;;;;8.99;66.69;102457.53;10186095;29;20047;-57
2023/02/12 04:44:22;;;;;;;42.25;20.38;;;;;;;8.96;66.38;102467.63;10188589;29;20056;-60
2023/02/12 04:49:24;;;;;;;40.88;20.60;;;;;;;8.98;66.60;102471.06;10188783;29;20086;-60
2023/02/12 04:54:25;;;;;;;38.45;20.23;;;;;;;9.01;66.41;102460.13;10175525;29;20072;-59
2023/02/12 04:59:27;;;;;;;37.22;20.70;;;;;;;9.02;66.71;102465.34;10183776;29;20056;-60
2023/02/12 05:04:28;;;;;;;38.92;19.27;;;;;;;9.04;66.47;102467.91;10188372;29;20969;-58
2023/02/12 05:09:30;;;;;;;37.90;20.80;;;;;;;9.05;66.85;102457.09;10189933;29;20075;-60
2023/02/12 05:14:31;;;;;;;37.90;21.33;;;;;;;9.03;66.42;102461.72;10189009;29;20076;-60
2023/02/12 05:19:32;;;;;;;38.45;19.25;;;;;;;8.97;66.82;102456.78;10186261;29;20396;-58
2023/02/12 05:24:34;;;;;;;40.42;20.27;;;;;;;8.97;66.54;102461.31;10187798;29;20665;-59
2023/02/12 05:29:35;;;;;;;35.17;20.73;;;;;;;8.92;66.88;102457.13;10186839;29;20400;-62
2023/02/12 05:34:37;;;;;;;36.17;19.67;;;;;;;8.96;66.65;102457.75;10189996;29;20044;-60
2023/02/12 05:39:38;;;;;;;38.45;20.77;;;;;;;8.99;67.06;102462.06;10173588;29;20086;-59
2023/02/12 05:44:39;;;;;;;38.35;19.85;;;;;;;9.00;66.49;102456.56;10187641;29;20079;-57
2023/02/12 05:49:41;;;;;;;36.05;20.02;;;;;;;9.04;66.63;102471.44;10184204;29;20056;-60
2023/02/12 05:54:43;;;;;;;38.90;19.15;;;;;;;9.06;66.67;102474.03;10182253;29;21027;-59
2023/02/12 05:59:44;;;;;;;40.35;21.17;;;;;;;9.07;66.80;102470.38;10187083;29;20723;-59
2023/02/12 06:04:45;;;;;;;38.67;20.67;;;;;;;9.05;66.64;102477.69;10182278;29;20111;-59
2023/02/12 06:09:49;;;;;;;42.50;20.27;;;;;;;9.08;66.96;102474.75;10185117;29;20142;-63
2023/02/12 06:14:50;;;;;;;38.03;19.35;;;;;;;9.10;66.63;102476.38;10191821;29;20070;-58
2023/02/12 06:19:52;;;;;;;38.78;20.00;;;;;;;9.13;66.60;102486.03;10186430;29;20254;-58
2023/02/12 06:24:53;;;;;;;41.30;19.52;;;;;;;9.12;66.42;102487.88;10184809;29;20082;-61
2023/02/12 06:29:54;;;;;;;35.72;18.83;;;;;;;9.14;66.89;102490.41;10174870;29;20108;-59
2023/02/12 06:34:56;;;;;;;39.80;20.27;;;;;;;9.17;66.35;102492.88;10184320;29;20491;-58
2023/02/12 06:39:57;;;;;;;36.05;18.83;;;;;;;9.19;66.26;102496.31;10183150;29;20048;-62
2023/02/12 06:44:58;;;;;;;38.83;21.85;;;;;;;9.23;66.45;102503.16;10216287;29;20096;-62
2023/02/12 06:50:00;;;;;;;35.58;19.33;;;;;;;9.22;66.40;102517.56;10216069;29;20059;-63
2023/02/12 06:55:01;;;;;;;36.70;19.25;;;;;;;9.21;66.77;102513.16;10223211;29;20043;-63
2023/02/12 07:00:03;;;;;;;39.15;20.60;;;;;;;9.10;67.24;102521.13;10219237;28;20043;-63
2023/02/12 07:05:05;;;;;;;40.88;22.42;;;;;;;8.99;67.72;102518.38;10224192;29;20059;-63
2023/02/12 07:10:07;;;;;;;47.50;22.55;;;;;;;8.92;67.87;102521.50;10218715;29;20051;-62
2023/02/12 07:15:09;;;;;;;42.63;22.45;;;;;;;8.86;68.20;102527.31;10221383;29;20071;-62
2023/02/12 07:20:11;;;;;;;41.28;22.23;;;;;;;8.84;68.36;102533.75;10225892;29;20063;-62
2023/02/12 07:25:13;;;;;;;44.90;23.27;;;;;;;8.81;67.99;102540.19;10227384;29;20048;-62
2023/02/12 07:30:14;;;;;;;45.58;23.52;;;;;;;8.81;68.52;102534.00;10222829;29;20043;-62
2023/02/12 07:35:16;;;;;;;48.83;24.15;;;;;;;8.77;68.35;102540.50;10228227;29;20048;-63
2023/02/12 07:40:17;;;;;;;48.08;25.13;;;;;;;8.79;68.35;102539.47;10227343;29;20063;-63
2023/02/12 07:45:19;;;;;;;43.85;22.83;;;;;;;8.82;68.39;102541.91;10221960;29;20044;-62
2023/02/12 07:50:20;;;;;;;47.88;25.20;;;;;;;8.89;68.71;102553.06;10222784;29;20051;-62
2023/02/12 07:55:22;;;;;;;42.92;24.35;;;;;;;8.93;68.78;102555.41;10225225;29;20279;-63
2023/02/12 08:00:23;;;;;;;52.22;24.65;;;;;;;8.99;68.96;102558.63;10222823;29;20063;-63
2023/02/12 08:05:26;;;;;;;45.28;25.08;;;;;;;9.04;68.90;102557.28;10223188;29;20042;-62
2023/02/12 08:10:28;;;;;;;43.53;24.67;;;;;;;9.07;68.95;102557.09;10218060;29;20051;-63
2023/02/12 08:15:32;;;;;;;50.45;26.00;;;;;;;9.17;69.30;102565.31;10208682;29;20052;-62
2023/02/12 08:20:34;;;;;;;49.28;26.17;;;;;;;9.21;69.15;102569.50;10192979;29;20044;-62
2023/02/12 08:25:35;;;;;;;45.35;24.63;;;;;;;9.30;68.90;102566.16;10197191;29;20056;-63
2023/02/12 08:30:36;;;;;;;48.35;24.80;;;;;;;9.43;69.16;102573.28;10204239;29;20051;-63
2023/02/12 08:35:38;;;;;;;47.38;24.50;;;;;;;9.51;68.89;102571.72;10204241;29;20060;-63
2023/02/12 08:40:39;;;;;;;50.42;25.65;;;;;;;9.60;68.91;102575.59;10208202;29;20052;-63
2023/02/12 08:45:43;;;;;;;51.78;23.77;;;;;;;9.63;69.02;102571.81;10215708;29;20047;-61
2023/02/12 08:50:45;;;;;;;63.60;27.25;;;;;;;9.75;69.03;102578.06;10213369;29;20112;-62
2023/02/12 08:55:48;;;;;;;48.58;27.63;;;;;;;9.84;68.98;102572.03;10192566;29;20076;-62
2023/02/12 09:00:50;;;;;;;47.38;26.05;;;;;;;9.95;68.87;102579.25;10211860;29;20047;-63
2023/02/12 09:05:51;;;;;;;44.00;25.42;;;;;;;10.03;68.66;102577.72;10207701;29;20091;-62
2023/02/12 09:10:53;;;;;;;48.83;24.88;;;;;;;10.07;68.78;102579.19;10216533;28;20103;-64
2023/02/12 09:15:54;;;;;;;44.63;22.92;;;;;;;10.23;68.48;102588.72;10230236;28;20043;-62
2023/02/12 09:21:06;;;;;;;48.50;24.40;;;;;;;10.27;68.37;102583.03;10217230;28;20063;-62
2023/02/12 09:26:10;;;;;;;54.97;26.60;;;;;;;10.27;68.46;102585.72;10213367;29;20052;-63
2023/02/12 09:31:14;;;;;;;53.10;26.80;;;;;;;10.35;68.44;102592.34;10211165;29;20044;-61
2023/02/12 09:36:16;;;;;;;47.20;25.02;;;;;;;10.41;68.23;102592.75;10212488;29;20606;-61
2023/02/12 09:41:45;;;;;;;48.33;26.23;;;;;;;10.47;68.08;102592.25;10216049;29;20062;-62
2023/02/12 09:46:58;;;;;;;52.58;27.52;;;;;;;10.55;67.86;102601.56;10216017;29;20044;-62
2023/02/12 09:52:01;;;;;;;51.92;25.75;;;;;;;10.60;67.96;102585.91;10215262;29;20055;-61
2023/02/12 09:57:13;;;;;;;56.88;26.88;;;;;;;10.57;67.96;102587.00;10217302;29;20059;-62
2023/02/12 10:02:16;;;;;;;54.00;27.70;;;;;;;10.71;67.81;102592.16;10221164;29;20107;-62
2023/02/12 10:07:45;;;;;;;58.28;28.45;;;;;;;10.75;67.74;102600.84;10218512;29;20051;-61
2023/02/12 10:12:56;;;;;;;58.15;28.88;;;;;;;10.83;67.56;102592.16;10217286;29;20044;-63
2023/02/12 10:18:19;;;;;;;62.70;29.35;;;;;;;11.00;67.40;102596.19;10212764;29;20051;-62
2023/02/12 10:23:58;;;;;;;64.47;28.20;;;;;;;11.00;66.94;102606.94;10216761;29;20059;-62
2023/02/12 10:29:35;;;;;;;60.83;30.33;;;;;;;11.18;66.82;102601.94;10217219;29;20052;-62
2023/02/12 10:34:40;;;;;;;55.78;28.55;;;;;;;11.18;66.67;102604.63;10198288;29;20044;-63
2023/02/12 10:39:47;;;;;;;60.92;29.05;;;;;;;11.22;66.38;102593.47;10218736;29;20044;-62
2023/02/12 10:44:48;;;;;;;;;;;;;;;11.32;66.71;102590.91;10216043;29;20048;-61
2023/02/12 10:49:58;;;;;;;63.75;27.30;;;;;;;11.43;66.32;102587.31;10221229;29;20352;-61
2023/02/12 10:55:00;;;;;;;62.00;31.20;;;;;;;11.37;66.19;102579.72;10227048;29;20044;-62
2023/02/12 11:00:25;;;;;;;61.85;28.50;;;;;;;11.42;66.57;102566.75;10220114;29;20031;-62
2023/02/12 11:05:29;;;;;;;60.50;26.83;;;;;;;11.59;66.21;102559.97;10217882;29;20048;-62
2023/02/12 11:10:37;;;;;;;62.53;28.08;;;;;;;11.71;65.81;102557.09;10217784;29;20044;-61
2023/02/12 11:15:47;;;;;;;62.65;27.08;;;;;;;11.85;65.65;102552.41;10217342;29;20076;-61
2023/02/12 11:20:51;;;;;;;56.65;25.95;;;;;;;11.93;66.07;102549.94;10214604;29;20048;-63
2023/02/12 11:25:59;;;;;;;58.40;27.88;;;;;;;11.95;65.77;102549.78;10218273;29;20056;-62
2023/02/12 11:31:22;;;;;;;59.80;28.02;;;;;;;12.00;65.91;102548.41;10216613;29;20056;-62
2023/02/12 11:36:26;;;;;;;62.15;28.88;;;;;;;11.99;65.86;102532.38;10218075;29;20064;-62
2023/02/12 11:41:38;;;;;;;64.45;27.13;;;;;;;12.12;65.63;102541.09;10215712;29;20084;-62
2023/02/12 11:46:48;;;;;;;59.80;27.88;;;;;;;12.18;65.44;102524.41;10218864;29;20056;-61
2023/02/12 11:51:50;;;;;;;63.53;26.83;;;;;;;12.38;64.92;102524.50;10213665;29;20059;-61
2023/02/12 11:56:54;;;;;;;57.35;27.48;;;;;;;12.63;64.55;102521.38;10205032;29;20055;-62
2023/02/12 12:02:00;;;;;;;61.40;29.10;;;;;;;12.74;63.89;102508.75;10203405;29;20056;-61
2023/02/12 12:07:12;;;;;;;55.22;26.40;;;;;;;12.77;64.13;102508.50;10204913;29;20074;-59
2023/02/12 12:12:52;;;;;;;52.45;25.45;;;;;;;12.99;63.62;102504.72;10209167;29;20055;-61
2023/02/12 12:23:22;;;;;;;49.83;24.35;;;;;;;13.31;63.10;102491.03;10206060;29;20210;-63
2023/02/12 12:28:40;;;;;;;48.08;23.08;;;;;;;13.47;62.79;102479.66;10210057;29;20822;-61
2023/02/12 12:34:02;;;;;;;44.67;22.38;;;;;;;13.58;62.63;102482.19;10210064;29;20059;-60
2023/02/12 12:39:20;;;;;;;42.00;21.73;;;;;;;13.67;62.28;102477.78;10204720;29;20062;-60
2023/02/12 12:44:34;;;;;;;40.75;20.67;;;;;;;13.83;62.15;102479.91;10184176;28;20047;-62
2023/02/12 12:50:07;;;;;;;39.67;20.17;;;;;;;14.07;61.70;102474.00;10211260;29;20107;-61
2023/02/12 12:55:30;;;;;;;45.13;22.88;;;;;;;14.03;61.80;102465.31;10205975;29;20556;-63
2023/02/12 13:00:31;;;;;;;44.63;22.10;;;;;;;14.31;61.46;102467.25;10192742;29;20052;-62
2023/02/12 13:05:52;;;;;;;34.90;19.10;;;;;;;14.37;60.87;102453.97;10192535;29;20052;-60
2023/02/12 13:11:05;;;;;;;34.90;18.02;;;;;;;14.16;61.20;102453.31;10209539;29;20114;-61
2023/02/12 13:16:15;;;;;;;33.10;18.45;;;;;;;14.02;61.36;102455.53;10206078;29;20043;-59
2023/02/12 13:21:26;;;;;;;31.55;18.60;;;;;;;14.08;61.31;102448.69;10207064;29;20054;-62
2023/02/12 13:26:41;;;;;;;32.22;17.38;;;;;;;14.04;60.87;102444.53;10210616;29;20056;-61
2023/02/12 13:31:56;;;;;;;30.10;16.63;;;;;;;13.99;60.53;102447.69;10212072;29;20084;-62
2023/02/12 13:37:05;;;;;;;26.60;15.20;;;;;;;14.04;60.64;102437.31;10207649;29;20060;-60
2023/02/12 13:42:06;;;;;;;25.02;13.48;;;;;;;13.99;60.62;102442.28;10199679;29;20043;-59
2023/02/12 13:47:47;;;;;;;23.88;13.23;;;;;;;13.94;60.51;102441.00;10215562;29;20087;-63
2023/02/12 13:52:58;;;;;;;25.70;13.20;;;;;;;14.05;60.41;102433.56;10161098;29;20051;-63
2023/02/12 13:58:33;;;;;;;22.42;13.15;;;;;;;14.21;60.18;102437.50;10218381;29;20047;-62
2023/02/12 14:03:36;;;;;;;23.15;12.90;;;;;;;14.21;59.93;102435.66;10214939;29;20078;-61
2023/02/12 14:08:41;;;;;;;23.65;12.52;;;;;;;14.07;60.11;102439.69;10212338;29;20060;-63
2023/02/12 14:13:55;;;;;;;22.25;12.55;;;;;;;14.07;59.99;102431.56;10207430;29;20052;-62
2023/02/12 14:19:34;;;;;;;17.70;10.43;;;;;;;14.05;59.83;102435.44;10199954;29;20052;-61
2023/02/12 14:24:35;;;;;;;18.35;11.27;;;;;;;13.88;60.00;102437.03;10199188;29;20491;-60
2023/02/12 14:29:37;;;;;;;23.02;12.27;;;;;;;13.80;59.90;102440.50;10203452;29;20051;-61
2023/02/12 14:34:38;;;;;;;22.30;12.40;;;;;;;13.86;59.85;102436.34;10203454;29;20044;-62
2023/02/12 14:39:40;;;;;;;23.63;12.98;;;;;;;13.82;59.54;102430.41;10205036;29;20506;-61
2023/02/12 14:44:45;;;;;;;18.10;10.07;;;;;;;13.83;59.44;102431.25;10204896;29;20051;-60
2023/02/12 14:49:54;;;;;;;12.40;7.80;;;;;;;13.80;59.41;102429.69;10197972;29;20070;-63
2023/02/12 14:55:17;;;;;;;11.38;7.00;;;;;;;13.78;59.41;102430.81;10212759;29;20040;-62
2023/02/12 15:00:31;;;;;;;19.63;8.35;;;;;;;13.74;59.20;102424.84;10192465;29;20052;-61
2023/02/12 15:05:40;;;;;;;14.68;8.27;;;;;;;13.59;59.84;102429.88;10187509;29;20060;-61
2023/02/12 15:10:48;;;;;;;21.63;8.85;;;;;;;13.45;59.67;102425.75;10185067;29;20111;-63
2023/02/12 15:16:19;;;;;;;10.57;6.30;;;;;;;13.34;59.88;102428.59;10199770;29;20107;-62
2023/02/12 15:21:26;;;;;;;11.07;5.95;;;;;;;13.31;59.88;102422.63;10186416;29;20376;-60
2023/02/12 15:26:32;;;;;;;11.32;6.63;;;;;;;13.20;59.89;102421.75;10182246;29;20132;-62
2023/02/12 15:31:34;;;;;;;12.65;6.10;;;;;;;13.08;59.84;102423.72;10179757;29;20417;-61
2023/02/12 15:36:36;;;;;;;15.48;7.70;;;;;;;12.93;60.27;102425.13;10186299;29;20144;-60
2023/02/12 15:41:39;;;;;;;19.13;9.55;;;;;;;12.82;60.26;102423.41;10184971;29;20060;-60
2023/02/12 15:46:52;;;;;;;21.33;10.32;;;;;;;12.73;60.37;102423.41;10181000;29;20094;-61
2023/02/12 15:51:55;;;;;;;20.30;10.07;;;;;;;12.67;60.79;102427.50;10178404;29;20076;-61
2023/02/12 15:56:57;;;;;;;22.60;10.10;;;;;;;12.64;60.78;102417.84;10180024;29;20131;-60
2023/02/12 16:02:02;;;;;;;21.73;10.55;;;;;;;12.43;61.17;102422.47;10204247;29;20326;-61
2023/02/12 16:07:03;;;;;;;22.45;10.80;;;;;;;12.31;61.73;102408.25;10204309;29;20051;-62
2023/02/12 16:12:11;;;;;;;21.80;9.45;;;;;;;12.19;62.43;102398.56;10199673;29;20055;-61
2023/02/12 16:17:20;;;;;;;21.48;8.90;;;;;;;12.14;62.29;102408.88;10194974;29;20127;-60
2023/02/12 16:22:26;;;;;;;20.52;9.77;;;;;;;12.05;62.43;102408.69;10195905;29;20052;-61
2023/02/12 16:27:30;;;;;;;22.20;10.25;;;;;;;12.04;62.50;102406.97;10171382;29;20073;-60
2023/02/12 16:32:37;;;;;;;19.58;8.68;;;;;;;12.00;62.96;102407.41;10195315;29;20806;-62
2023/02/12 16:37:42;;;;;;;19.48;8.32;;;;;;;12.00;63.15;102418.19;10192561;29;20063;-61
2023/02/12 16:42:47;;;;;;;18.27;8.93;;;;;;;11.87;63.40;102405.75;10199615;29;20051;-61
2023/02/12 16:47:50;;;;;;;18.63;9.40;;;;;;;11.86;63.19;102417.50;10202455;29;20064;-62
2023/02/12 16:53:02;;;;;;;20.98;8.95;;;;;;;11.81;63.71;102405.41;10209479;29;20052;-62
2023/02/12 16:58:03;;;;;;;25.00;11.38;;;;;;;11.82;63.41;102421.44;10211421;29;20048;-62
2023/02/12 17:03:04;;;;;;;27.25;11.98;;;;;;;11.79;63.40;102421.72;10210944;29;20084;-60
2023/02/12 17:08:14;;;;;;;21.73;10.40;;;;;;;11.77;64.04;102430.91;10180735;29;20056;-59
2023/02/12 17:13:17;;;;;;;21.15;9.80;;;;;;;11.76;63.89;102432.75;10171300;29;20154;-59
2023/02/12 17:18:19;;;;;;;22.15;9.63;;;;;;;11.75;64.21;102439.16;10171048;29;20123;-58
2023/02/12 17:23:21;;;;;;;17.23;9.07;;;;;;;11.72;64.29;102434.00;10173745;29;20087;-59
2023/02/12 17:28:24;;;;;;;16.75;8.90;;;;;;;11.64;64.51;102448.13;10171049;29;20143;-58
2023/02/12 17:33:26;;;;;;;19.92;9.75;;;;;;;11.69;64.43;102450.47;10177769;29;20679;-58
2023/02/12 17:38:27;;;;;;;17.13;8.45;;;;;;;11.63;64.34;102449.16;10176568;29;20040;-59
2023/02/12 17:43:29;;;;;;;20.65;9.90;;;;;;;11.52;64.92;102449.19;10178969;29;20098;-59
2023/02/12 17:48:30;;;;;;;17.63;8.70;;;;;;;11.51;64.65;102447.47;10181597;29;20051;-60
2023/02/12 17:53:32;;;;;;;17.27;8.63;;;;;;;11.46;65.18;102449.72;10181223;29;20103;-58
2023/02/12 17:58:33;;;;;;;15.75;7.80;;;;;;;11.48;65.22;102450.44;10189346;29;20135;-58
2023/02/12 18:03:35;;;;;;;17.35;8.23;;;;;;;11.45;64.95;102458.75;10185783;29;20086;-59
2023/02/12 18:08:36;;;;;;;15.27;8.35;;;;;;;11.48;65.04;102453.13;10179388;29;20846;-58
2023/02/12 18:13:38;;;;;;;15.60;8.30;;;;;;;11.42;65.73;102456.34;10184376;29;20059;-60
2023/02/12 18:18:39;;;;;;;15.50;7.30;;;;;;;11.40;65.38;102456.47;10180335;29;20055;-61
2023/02/12 18:23:41;;;;;;;12.52;6.78;;;;;;;11.36;65.47;102459.56;10170073;29;20056;-57
2023/02/12 18:28:44;;;;;;;9.93;5.80;;;;;;;11.26;66.28;102454.94;10181098;29;20056;-59
2023/02/12 18:33:45;;;;;;;10.02;5.65;;;;;;;11.30;65.73;102456.38;10176542;29;20607;-58
2023/02/12 18:38:48;;;;;;;9.60;4.93;;;;;;;11.26;65.96;102463.00;10176276;29;20071;-58
2023/02/12 18:43:50;;;;;;;6.38;4.05;;;;;;;11.26;65.76;102465.72;10172182;29;20082;-59
2023/02/12 18:48:52;;;;;;;8.48;5.10;;;;;;;11.21;66.40;102457.16;10181850;29;20063;-58
2023/02/12 18:54:02;;;;;;;10.32;5.07;;;;;;;11.25;66.04;102468.53;10193633;29;20051;-64
2023/02/12 18:59:07;;;;;;;9.13;4.85;;;;;;;11.20;66.17;102466.22;10196534;29;20050;-61
2023/02/12 19:04:11;;;;;;;10.43;5.72;;;;;;;11.22;66.18;102458.88;10211147;29;20082;-62
2023/02/12 19:09:15;;;;;;;12.10;6.65;;;;;;;11.24;65.94;102461.44;10203367;29;20103;-63
2023/02/12 19:14:18;;;;;;;8.52;5.70;;;;;;;11.20;66.12;102458.16;10186342;29;20055;-58
2023/02/12 19:19:20;;;;;;;13.43;7.18;;;;;;;11.23;66.42;102454.34;10179899;29;20051;-57
2023/02/12 19:24:21;;;;;;;10.38;5.55;;;;;;;11.17;66.28;102455.69;10175299;29;20407;-58
2023/02/12 19:29:23;;;;;;;11.07;6.70;;;;;;;11.07;66.75;102457.44;10174987;29;20056;-60
2023/02/12 19:34:26;;;;;;;11.68;6.40;;;;;;;11.07;66.65;102454.75;10173916;29;20108;-60
2023/02/12 19:39:27;;;;;;;11.55;6.65;;;;;;;11.12;66.75;102463.31;10175374;29;20147;-58
2023/02/12 19:44:29;;;;;;;10.80;6.38;;;;;;;11.10;66.54;102470.66;10182130;29;20142;-58
2023/02/12 19:49:30;;;;;;;10.45;6.50;;;;;;;11.06;66.75;102462.00;10179261;29;20397;-61
2023/02/12 19:54:31;;;;;;;10.80;6.50;;;;;;;11.10;66.40;102463.44;10169288;29;20052;-58
2023/02/12 19:59:34;;;;;;;11.45;6.97;;;;;;;11.07;66.73;102455.59;10175723;29;20143;-58
2023/02/12 20:04:35;;;;;;;10.70;6.65;;;;;;;11.04;66.52;102450.50;10167493;29;20071;-59
2023/02/12 20:09:37;;;;;;;10.35;5.55;;;;;;;10.99;67.02;102460.78;10155817;29;20103;-59
2023/02/12 20:14:38;;;;;;;10.57;6.50;;;;;;;11.03;66.75;102458.69;10168654;29;20047;-59
2023/02/12 20:19:40;;;;;;;10.40;5.43;;;;;;;11.02;66.75;102454.28;10174911;29;20119;-59
2023/02/12 20:24:41;;;;;;;8.95;5.95;;;;;;;10.97;66.85;102459.19;10173217;29;20048;-58
2023/02/12 20:29:42;;;;;;;9.88;5.40;;;;;;;10.99;66.84;102462.63;10174270;29;20090;-59
2023/02/12 20:34:44;;;;;;;10.23;6.63;;;;;;;11.01;66.92;102460.66;10170848;29;20733;-60
2023/02/12 20:39:51;;;;;;;13.25;6.72;;;;;;;10.99;66.67;102468.84;10176861;29;20566;-59
2023/02/12 20:44:52;;;;;;;9.40;5.63;;;;;;;10.94;66.59;102480.97;10173443;29;21866;-59
2023/02/12 20:49:55;;;;;;;8.95;5.88;;;;;;;10.91;67.09;102476.69;10170351;29;20070;-59
2023/02/12 20:54:57;;;;;;;9.52;5.70;;;;;;;10.88;67.13;102482.31;10168113;29;20427;-58
2023/02/12 20:59:58;;;;;;;10.60;6.68;;;;;;;10.90;67.13;102488.47;10169400;29;20138;-59
2023/02/12 21:04:59;;;;;;;11.05;6.60;;;;;;;10.95;66.79;102488.91;10169360;29;20131;-59
2023/02/12 21:10:01;;;;;;;11.73;5.90;;;;;;;11.00;66.56;102492.09;10184658;29;20134;-58
2023/02/12 21:15:02;;;;;;;9.98;6.20;;;;;;;10.91;66.68;102495.53;10180512;29;21092;-57
2023/02/12 21:20:06;;;;;;;11.07;6.15;;;;;;;10.94;67.06;102498.00;10184579;29;20052;-56
2023/02/12 21:25:07;;;;;;;11.20;6.20;;;;;;;10.94;67.07;102497.09;10168891;29;20043;-59
2023/02/12 21:30:09;;;;;;;11.13;5.88;;;;;;;10.99;66.56;102506.53;10173647;29;20048;-58
2023/02/12 21:35:10;;;;;;;11.13;6.80;;;;;;;10.94;66.74;102506.06;10183119;29;20455;-58
2023/02/12 21:40:12;;;;;;;14.85;8.63;;;;;;;10.98;66.63;102504.81;10185821;29;20055;-58
2023/02/12 21:45:13;;;;;;;11.77;7.05;;;;;;;10.96;66.97;102506.78;10184846;29;20118;-58
2023/02/12 21:50:19;;;;;;;11.02;7.10;;;;;;;10.97;66.93;102513.88;10155157;29;20064;-58
2023/02/12 21:55:21;;;;;;;10.68;6.47;;;;;;;10.94;66.97;102510.56;10158211;29;20094;-59
2023/02/12 22:00:22;;;;;;;12.68;7.32;;;;;;;10.90;67.15;102510.84;10157645;29;20156;-58
2023/02/12 22:05:24;;;;;;;12.60;6.88;;;;;;;10.95;66.74;102509.59;10157872;29;20123;-60
2023/02/12 22:10:26;;;;;;;11.45;7.18;;;;;;;10.96;66.78;102501.41;10162105;29;20098;-58
2023/02/12 22:15:28;;;;;;;9.27;6.75;;;;;;;10.95;66.95;102505.06;10157457;29;20080;-58
2023/02/12 22:20:29;;;;;;;12.70;7.03;;;;;;;10.96;66.94;102505.91;10158982;29;20048;-57
2023/02/12 22:25:32;;;;;;;13.40;7.15;;;;;;;10.95;66.79;102506.91;10157665;29;20469;-60
2023/02/12 22:30:33;;;;;;;13.65;7.47;;;;;;;10.92;67.10;102510.72;10157827;29;20484;-57
2023/02/12 22:35:35;;;;;;;14.60;7.07;;;;;;;10.97;66.87;102510.31;10156375;29;20948;-59
2023/02/12 22:40:36;;;;;;;13.00;7.40;;;;;;;10.97;66.92;102513.88;10158706;29;20402;-57
2023/02/12 22:45:42;;;;;;;10.55;7.13;;;;;;;10.99;66.43;102517.28;10158954;29;20127;-59
2023/02/12 22:50:43;;;;;;;13.15;7.72;;;;;;;10.99;66.56;102519.97;10180362;29;20135;-60
2023/02/12 22:55:45;;;;;;;16.55;9.25;;;;;;;10.99;66.54;102522.66;10178195;29;20450;-58
2023/02/12 23:00:46;;;;;;;13.48;7.90;;;;;;;10.98;66.45;102520.97;10178354;29;20075;-59
2023/02/12 23:05:47;;;;;;;12.85;7.60;;;;;;;11.00;66.53;102524.41;10179961;29;20172;-57
2023/02/12 23:10:49;;;;;;;15.48;7.80;;;;;;;10.99;66.64;102527.22;10177015;29;20174;-57
2023/02/12 23:15:50;;;;;;;12.55;7.13;;;;;;;10.95;67.04;102526.59;10172976;29;20048;-58